Flugplatz Bottenhorn (EDGT)

Hier findest Du alle Informationen zum Flugplatz Bottenhorn (EDGT).

Informationen für Piloten zum Flugplatz Bottenhorn

Hier findest Du alle relevanten Informationen, die Du als Pilot benötigst, um Bottenhorn anzufliegen.

Flugplatz: Bottenhorn ICAO-Code: EDGT
Frequenz Turm: 123.800 Mhz GAFOR Gebiet: 39
Frequenz Ground: 123.800 Mhz Mogas: nein
Platzrunde: S 2800 ft Landegebühr: -
Platzhöhe: 1.657 ft Sunrise: 03:38 Uhr UTC
Pisten: 11/29 - 525 m x 30 m, GRAS Sunset: 19:26 Uhr UTC

Mitglieder, die in Bottenhorn fliegen

Flugwetter am Flugplatz Bottenhorn

Die METAR Information stammen aus EDGS (28.45 km entfernt).

METAR Code:
2024/07/21 10:50
EDGS 211050Z 23009KT 180V270 9999 FEW026 24/17 Q1010

Flugschulen am Flugplatz Bottenhorn

Am Flugplatz Bottenhorn gibt es eine Flugschule.

Benachbarte Flugplätze und Flugschulen

Es gibt 16 weitere Flugplätze in einem Umkreis von 50 km um den Flugplatz Bottenhorn.

Jetzt anmelden

Passwort vergessen

Umfrage Archiv

Wie häufig haltet Ihr die Halbkreisflugregel ein?

Eher häufig!
36.3 %
Immer!
30.6 %
Hin und wieder!
16.9 %
Nie!
9.4 %
Eher selten!
6.8 %
Stimmen: 278 | Diskussion
Anzeige: Roland Aircraft
Statistik Alle Mitglieder

Aktuell sind 31 Besucher online, davon 3 Mitglieder und 28 Gäste.


Mitglieder online:
marcom  b3nn0  tweety08 

Anzeige: EasyVFR